CheckWX is a tool to help pilots better visualize weather data.  It is not intended as a substitute for an official pre-flight weather briefing.

09:00:07 UTC

UTNU TAF
Urgench Airport
Urgench, Uzbekistan
TAF UTNU 220502Z 2206/2306 12010G20KT 8000 NSC

Feb-22@
06:00 UTC

Feb-22 @ 06:00 UTC

Feb-23@
06:00 UTC

Feb-23 @ 06:00 UTC

TAF UTNU 220502Z 2206/2306 12010G20KT 8000 NSC
Wind
  • 120° at 10 KTS
  • {Gusting to 20 KTS
Cloud Levels
  • No significant clouds